METAR Data
IDs: Format: Raw Decoded Include TAF

Data at: 0725 UTC 01 Aug 2021

LSME 010650Z AUTO 28003KT 250V320 9999NDV -RA SCT016 BKN019 BKN033 14/12 Q1012 RMK